sensor_id;sensor_type;location;lat;lon;timestamp;temperature;humidity
22212;DHT22;11275;52.488;13.462;2022-10-18T00:00:26;17.80;99.90
22212;DHT22;11275;52.488;13.462;2022-10-18T00:02:51;17.80;99.90
22212;DHT22;11275;52.488;13.462;2022-10-18T00:05:17;17.90;99.90
22212;DHT22;11275;52.488;13.462;2022-10-18T00:07:43;17.80;99.90
22212;DHT22;11275;52.488;13.462;2022-10-18T00:10:09;17.80;99.90
22212;DHT22;11275;52.488;13.462;2022-10-18T00:12:35;17.80;99.90
22212;DHT22;11275;52.488;13.462;2022-10-18T00:15:03;17.80;99.90
22212;DHT22;11275;52.488;13.462;2022-10-18T00:17:28;17.80;99.90
22212;DHT22;11275;52.488;13.462;2022-10-18T00:19:54;17.80;99.90
22212;DHT22;11275;52.488;13.462;2022-10-18T00:22:20;17.80;99.90
22212;DHT22;11275;52.488;13.462;2022-10-18T00:24:45;17.80;99.90
22212;DHT22;11275;52.488;13.462;2022-10-18T00:27:11;17.70;99.90
22212;DHT22;11275;52.488;13.462;2022-10-18T00:29:36;17.70;99.90
22212;DHT22;11275;52.488;13.462;2022-10-18T00:32:02;17.70;99.90
22212;DHT22;11275;52.488;13.462;2022-10-18T00:34:28;17.70;99.90
22212;DHT22;11275;52.488;13.462;2022-10-18T00:36:53;17.70;99.90
22212;DHT22;11275;52.488;13.462;2022-10-18T00:39:20;17.70;99.90
22212;DHT22;11275;52.488;13.462;2022-10-18T00:41:47;17.70;99.90
22212;DHT22;11275;52.488;13.462;2022-10-18T00:46:40;17.70;99.90
22212;DHT22;11275;52.488;13.462;2022-10-18T00:49:31;17.70;99.90
22212;DHT22;11275;52.488;13.462;2022-10-18T00:52:04;17.70;99.90
22212;DHT22;11275;52.488;13.462;2022-10-18T00:54:33;17.70;99.90
22212;DHT22;11275;52.488;13.462;2022-10-18T00:57:00;17.70;99.90
22212;DHT22;11275;52.488;13.462;2022-10-18T00:59:26;17.70;99.90
22212;DHT22;11275;52.488;13.462;2022-10-18T01:01:52;17.70;99.90
22212;DHT22;11275;52.488;13.462;2022-10-18T01:04:18;17.80;99.90
22212;DHT22;11275;52.488;13.462;2022-10-18T01:07:16;17.80;99.90
22212;DHT22;11275;52.488;13.462;2022-10-18T01:23:14;18.00;99.90
22212;DHT22;11275;52.488;13.462;2022-10-18T01:26:01;18.10;99.90
22212;DHT22;11275;52.488;13.462;2022-10-18T01:28:34;18.10;99.90
22212;DHT22;11275;52.488;13.462;2022-10-18T01:31:12;18.10;99.90
22212;DHT22;11275;52.488;13.462;2022-10-18T01:33:50;18.10;99.90
22212;DHT22;11275;52.488;13.462;2022-10-18T01:36:22;18.20;99.90
22212;DHT22;11275;52.488;13.462;2022-10-18T01:38:51;18.20;99.90
22212;DHT22;11275;52.488;13.462;2022-10-18T01:41:19;18.20;99.90
22212;DHT22;11275;52.488;13.462;2022-10-18T01:43:48;18.20;99.90
22212;DHT22;11275;52.488;13.462;2022-10-18T01:46:18;18.20;99.90
22212;DHT22;11275;52.488;13.462;2022-10-18T01:48:46;18.30;99.90
22212;DHT22;11275;52.488;13.462;2022-10-18T01:51:11;18.30;99.90
22212;DHT22;11275;52.488;13.462;2022-10-18T01:53:37;18.30;99.90
22212;DHT22;11275;52.488;13.462;2022-10-18T01:56:15;18.30;99.90
22212;DHT22;11275;52.488;13.462;2022-10-18T02:05:05;18.30;99.90
22212;DHT22;11275;52.488;13.462;2022-10-18T02:07:40;18.20;99.90
22212;DHT22;11275;52.488;13.462;2022-10-18T02:10:14;18.30;99.90
22212;DHT22;11275;52.488;13.462;2022-10-18T02:12:44;18.30;99.90
22212;DHT22;11275;52.488;13.462;2022-10-18T02:15:13;18.30;99.90
22212;DHT22;11275;52.488;13.462;2022-10-18T02:17:39;18.30;99.90
22212;DHT22;11275;52.488;13.462;2022-10-18T02:20:07;18.30;99.90
22212;DHT22;11275;52.488;13.462;2022-10-18T02:22:34;18.30;99.90
22212;DHT22;11275;52.488;13.462;2022-10-18T02:25:05;18.30;99.90
22212;DHT22;11275;52.488;13.462;2022-10-18T02:27:31;18.40;99.90
22212;DHT22;11275;52.488;13.462;2022-10-18T02:29:57;18.30;99.90
22212;DHT22;11275;52.488;13.462;2022-10-18T02:37:37;18.40;99.90
22212;DHT22;11275;52.488;13.462;2022-10-18T02:40:05;18.40;99.90
22212;DHT22;11275;52.488;13.462;2022-10-18T02:42:37;18.40;99.90
22212;DHT22;11275;52.488;13.462;2022-10-18T02:45:05;18.40;99.90
22212;DHT22;11275;52.488;13.462;2022-10-18T02:47:31;18.40;99.90
22212;DHT22;11275;52.488;13.462;2022-10-18T02:49:56;18.40;99.90
22212;DHT22;11275;52.488;13.462;2022-10-18T02:52:22;18.40;99.90
22212;DHT22;11275;52.488;13.462;2022-10-18T02:54:47;18.40;99.90
22212;DHT22;11275;52.488;13.462;2022-10-18T02:57:13;18.40;99.90
22212;DHT22;11275;52.488;13.462;2022-10-18T02:59:39;18.40;99.90
22212;DHT22;11275;52.488;13.462;2022-10-18T03:02:04;18.40;99.90
22212;DHT22;11275;52.488;13.462;2022-10-18T03:04:30;18.40;99.90
22212;DHT22;11275;52.488;13.462;2022-10-18T03:06:55;18.40;99.90
22212;DHT22;11275;52.488;13.462;2022-10-18T03:09:21;18.40;99.90
22212;DHT22;11275;52.488;13.462;2022-10-18T03:11:47;18.40;99.90
22212;DHT22;11275;52.488;13.462;2022-10-18T03:14:12;18.40;99.90
22212;DHT22;11275;52.488;13.462;2022-10-18T03:16:38;18.30;99.90
22212;DHT22;11275;52.488;13.462;2022-10-18T03:19:04;18.40;99.90
22212;DHT22;11275;52.488;13.462;2022-10-18T03:21:29;18.30;99.90
22212;DHT22;11275;52.488;13.462;2022-10-18T03:23:55;18.40;99.90
22212;DHT22;11275;52.488;13.462;2022-10-18T03:26:20;18.40;99.90
22212;DHT22;11275;52.488;13.462;2022-10-18T03:28:46;18.30;99.90
22212;DHT22;11275;52.488;13.462;2022-10-18T03:31:12;18.30;99.90
22212;DHT22;11275;52.488;13.462;2022-10-18T03:33:37;18.30;99.90
22212;DHT22;11275;52.488;13.462;2022-10-18T03:36:03;18.30;99.90
22212;DHT22;11275;52.488;13.462;2022-10-18T03:38:29;18.30;99.90
22212;DHT22;11275;52.488;13.462;2022-10-18T03:40:55;18.30;99.90
22212;DHT22;11275;52.488;13.462;2022-10-18T03:43:21;18.30;99.90
22212;DHT22;11275;52.488;13.462;2022-10-18T03:45:46;18.30;99.90
22212;DHT22;11275;52.488;13.462;2022-10-18T03:48:12;18.30;99.90
22212;DHT22;11275;52.488;13.462;2022-10-18T03:50:38;18.30;99.90
22212;DHT22;11275;52.488;13.462;2022-10-18T03:53:04;18.30;99.90
22212;DHT22;11275;52.488;13.462;2022-10-18T03:55:29;18.30;99.90
22212;DHT22;11275;52.488;13.462;2022-10-18T03:57:55;18.30;99.90
22212;DHT22;11275;52.488;13.462;2022-10-18T04:00:21;18.20;99.90
22212;DHT22;11275;52.488;13.462;2022-10-18T04:02:48;18.20;99.90
22212;DHT22;11275;52.488;13.462;2022-10-18T04:05:13;18.20;99.90
22212;DHT22;11275;52.488;13.462;2022-10-18T04:07:39;18.20;99.90
22212;DHT22;11275;52.488;13.462;2022-10-18T04:10:05;18.20;99.90
22212;DHT22;11275;52.488;13.462;2022-10-18T04:12:31;18.10;99.90
22212;DHT22;11275;52.488;13.462;2022-10-18T04:14:56;18.10;99.90
22212;DHT22;11275;52.488;13.462;2022-10-18T04:17:22;18.20;99.90
22212;DHT22;11275;52.488;13.462;2022-10-18T04:19:47;18.20;99.90
22212;DHT22;11275;52.488;13.462;2022-10-18T04:22:13;18.20;99.90
22212;DHT22;11275;52.488;13.462;2022-10-18T04:24:39;18.20;99.90
22212;DHT22;11275;52.488;13.462;2022-10-18T04:27:05;18.20;99.90
22212;DHT22;11275;52.488;13.462;2022-10-18T04:29:32;18.10;99.90
22212;DHT22;11275;52.488;13.462;2022-10-18T04:31:57;18.00;99.90
22212;DHT22;11275;52.488;13.462;2022-10-18T04:34:23;18.00;99.90
22212;DHT22;11275;52.488;13.462;2022-10-18T04:36:49;18.00;99.90
22212;DHT22;11275;52.488;13.462;2022-10-18T04:39:14;18.00;99.90
22212;DHT22;11275;52.488;13.462;2022-10-18T04:41:40;18.00;99.90
22212;DHT22;11275;52.488;13.462;2022-10-18T04:44:06;18.00;99.90
22212;DHT22;11275;52.488;13.462;2022-10-18T04:46:32;18.00;99.90
22212;DHT22;11275;52.488;13.462;2022-10-18T04:48:57;18.00;99.90
22212;DHT22;11275;52.488;13.462;2022-10-18T04:51:26;17.90;99.90
22212;DHT22;11275;52.488;13.462;2022-10-18T04:53:51;17.90;99.90
22212;DHT22;11275;52.488;13.462;2022-10-18T04:56:17;17.90;99.90
22212;DHT22;11275;52.488;13.462;2022-10-18T04:58:42;17.90;99.90
22212;DHT22;11275;52.488;13.462;2022-10-18T05:01:08;17.90;99.90
22212;DHT22;11275;52.488;13.462;2022-10-18T05:03:34;17.90;99.90
22212;DHT22;11275;52.488;13.462;2022-10-18T05:05:59;17.90;99.90
22212;DHT22;11275;52.488;13.462;2022-10-18T05:08:25;17.90;99.90
22212;DHT22;11275;52.488;13.462;2022-10-18T05:11:00;17.90;99.90
22212;DHT22;11275;52.488;13.462;2022-10-18T05:13:26;17.90;99.90
22212;DHT22;11275;52.488;13.462;2022-10-18T05:15:55;17.90;99.90
22212;DHT22;11275;52.488;13.462;2022-10-18T05:18:20;17.80;99.90
22212;DHT22;11275;52.488;13.462;2022-10-18T05:20:46;17.90;99.90
22212;DHT22;11275;52.488;13.462;2022-10-18T05:23:21;17.80;99.90
22212;DHT22;11275;52.488;13.462;2022-10-18T05:25:47;17.70;99.90
22212;DHT22;11275;52.488;13.462;2022-10-18T05:28:13;17.70;99.90
22212;DHT22;11275;52.488;13.462;2022-10-18T05:30:39;17.80;99.90
22212;DHT22;11275;52.488;13.462;2022-10-18T05:33:05;17.80;99.90
22212;DHT22;11275;52.488;13.462;2022-10-18T05:35:31;17.80;99.90
22212;DHT22;11275;52.488;13.462;2022-10-18T05:37:57;17.80;99.90
22212;DHT22;11275;52.488;13.462;2022-10-18T05:40:22;17.70;99.90
22212;DHT22;11275;52.488;13.462;2022-10-18T05:42:51;17.70;99.90
22212;DHT22;11275;52.488;13.462;2022-10-18T05:45:19;17.70;99.90
22212;DHT22;11275;52.488;13.462;2022-10-18T05:47:45;17.60;99.90
22212;DHT22;11275;52.488;13.462;2022-10-18T05:50:11;17.60;99.90
22212;DHT22;11275;52.488;13.462;2022-10-18T05:52:36;17.60;99.90
22212;DHT22;11275;52.488;13.462;2022-10-18T05:55:02;17.60;99.90
22212;DHT22;11275;52.488;13.462;2022-10-18T05:57:27;17.60;99.90
22212;DHT22;11275;52.488;13.462;2022-10-18T05:59:53;17.60;99.90
22212;DHT22;11275;52.488;13.462;2022-10-18T06:02:19;17.60;99.90
22212;DHT22;11275;52.488;13.462;2022-10-18T06:04:44;17.70;99.90
22212;DHT22;11275;52.488;13.462;2022-10-18T06:07:10;17.60;99.90
22212;DHT22;11275;52.488;13.462;2022-10-18T06:09:36;17.70;99.90
22212;DHT22;11275;52.488;13.462;2022-10-18T06:12:03;17.70;99.90
22212;DHT22;11275;52.488;13.462;2022-10-18T06:14:29;17.70;99.90
22212;DHT22;11275;52.488;13.462;2022-10-18T06:16:54;17.70;99.90
22212;DHT22;11275;52.488;13.462;2022-10-18T06:19:22;17.70;99.90
22212;DHT22;11275;52.488;13.462;2022-10-18T06:21:47;17.60;99.90
22212;DHT22;11275;52.488;13.462;2022-10-18T06:24:13;17.60;99.90
22212;DHT22;11275;52.488;13.462;2022-10-18T06:26:39;17.60;99.90
22212;DHT22;11275;52.488;13.462;2022-10-18T06:29:04;17.50;99.90
22212;DHT22;11275;52.488;13.462;2022-10-18T06:31:30;17.60;99.90
22212;DHT22;11275;52.488;13.462;2022-10-18T06:33:56;17.60;99.90
22212;DHT22;11275;52.488;13.462;2022-10-18T06:36:26;17.60;99.90
22212;DHT22;11275;52.488;13.462;2022-10-18T06:38:52;17.60;99.90
22212;DHT22;11275;52.488;13.462;2022-10-18T06:41:18;17.60;99.90
22212;DHT22;11275;52.488;13.462;2022-10-18T06:43:52;17.60;99.90
22212;DHT22;11275;52.488;13.462;2022-10-18T06:46:19;17.60;99.90
22212;DHT22;11275;52.488;13.462;2022-10-18T06:48:45;17.60;99.90
22212;DHT22;11275;52.488;13.462;2022-10-18T06:51:11;17.60;99.90
22212;DHT22;11275;52.488;13.462;2022-10-18T06:53:38;17.60;99.90
22212;DHT22;11275;52.488;13.462;2022-10-18T06:56:06;17.70;99.90
22212;DHT22;11275;52.488;13.462;2022-10-18T06:58:33;17.70;99.90
22212;DHT22;11275;52.488;13.462;2022-10-18T07:01:11;17.70;99.90
22212;DHT22;11275;52.488;13.462;2022-10-18T07:03:38;17.70;99.90
22212;DHT22;11275;52.488;13.462;2022-10-18T07:06:05;17.70;99.90
22212;DHT22;11275;52.488;13.462;2022-10-18T07:08:31;17.70;99.90
22212;DHT22;11275;52.488;13.462;2022-10-18T07:10:56;17.70;99.90
22212;DHT22;11275;52.488;13.462;2022-10-18T07:13:22;17.70;99.90
22212;DHT22;11275;52.488;13.462;2022-10-18T07:15:47;17.60;99.90
22212;DHT22;11275;52.488;13.462;2022-10-18T07:18:13;17.70;99.90
22212;DHT22;11275;52.488;13.462;2022-10-18T07:20:39;17.60;99.90
22212;DHT22;11275;52.488;13.462;2022-10-18T07:23:05;17.70;99.90
22212;DHT22;11275;52.488;13.462;2022-10-18T07:25:33;17.70;99.90
22212;DHT22;11275;52.488;13.462;2022-10-18T07:27:59;17.70;99.90
22212;DHT22;11275;52.488;13.462;2022-10-18T07:30:24;17.70;99.90
22212;DHT22;11275;52.488;13.462;2022-10-18T07:32:50;17.80;99.90
22212;DHT22;11275;52.488;13.462;2022-10-18T07:35:16;17.80;99.90
22212;DHT22;11275;52.488;13.462;2022-10-18T07:37:42;17.80;99.90
22212;DHT22;11275;52.488;13.462;2022-10-18T07:40:08;17.80;99.90
22212;DHT22;11275;52.488;13.462;2022-10-18T07:42:34;17.80;99.90
22212;DHT22;11275;52.488;13.462;2022-10-18T07:45:00;17.90;99.90
22212;DHT22;11275;52.488;13.462;2022-10-18T07:47:25;17.90;99.90
22212;DHT22;11275;52.488;13.462;2022-10-18T07:49:51;17.90;99.90
22212;DHT22;11275;52.488;13.462;2022-10-18T07:52:16;17.90;99.90
22212;DHT22;11275;52.488;13.462;2022-10-18T07:54:42;17.90;99.90
22212;DHT22;11275;52.488;13.462;2022-10-18T07:57:08;17.90;99.90
22212;DHT22;11275;52.488;13.462;2022-10-18T07:59:33;17.80;99.90
22212;DHT22;11275;52.488;13.462;2022-10-18T08:01:59;17.80;99.90
22212;DHT22;11275;52.488;13.462;2022-10-18T08:04:24;17.90;99.90
22212;DHT22;11275;52.488;13.462;2022-10-18T08:06:50;17.80;99.90
22212;DHT22;11275;52.488;13.462;2022-10-18T08:09:16;17.90;99.90
22212;DHT22;11275;52.488;13.462;2022-10-18T08:11:41;17.80;99.90
22212;DHT22;11275;52.488;13.462;2022-10-18T08:14:07;17.80;99.90
22212;DHT22;11275;52.488;13.462;2022-10-18T08:16:33;17.80;99.90
22212;DHT22;11275;52.488;13.462;2022-10-18T08:18:58;17.80;99.90
22212;DHT22;11275;52.488;13.462;2022-10-18T08:21:25;17.80;99.90
22212;DHT22;11275;52.488;13.462;2022-10-18T08:23:51;17.80;99.90
22212;DHT22;11275;52.488;13.462;2022-10-18T08:26:20;17.80;99.90
22212;DHT22;11275;52.488;13.462;2022-10-18T08:28:47;17.80;99.90
22212;DHT22;11275;52.488;13.462;2022-10-18T08:31:14;17.80;99.90
22212;DHT22;11275;52.488;13.462;2022-10-18T08:33:43;17.80;99.90
22212;DHT22;11275;52.488;13.462;2022-10-18T08:36:11;17.80;99.90
22212;DHT22;11275;52.488;13.462;2022-10-18T08:38:38;17.80;99.90
22212;DHT22;11275;52.488;13.462;2022-10-18T08:44:02;17.80;99.90
22212;DHT22;11275;52.488;13.462;2022-10-18T08:46:30;17.70;99.90
22212;DHT22;11275;52.488;13.462;2022-10-18T08:48:57;17.70;99.90
22212;DHT22;11275;52.488;13.462;2022-10-18T08:51:34;17.70;99.90
22212;DHT22;11275;52.488;13.462;2022-10-18T08:54:13;17.70;99.90
22212;DHT22;11275;52.488;13.462;2022-10-18T08:56:42;17.70;99.90
22212;DHT22;11275;52.488;13.462;2022-10-18T08:59:11;17.70;99.90
22212;DHT22;11275;52.488;13.462;2022-10-18T09:09:49;17.70;99.90
22212;DHT22;11275;52.488;13.462;2022-10-18T09:12:41;17.70;99.90
22212;DHT22;11275;52.488;13.462;2022-10-18T09:18:21;17.60;99.90
22212;DHT22;11275;52.488;13.462;2022-10-18T09:20:57;17.60;99.90
22212;DHT22;11275;52.488;13.462;2022-10-18T09:26:13;17.60;99.90
22212;DHT22;11275;52.488;13.462;2022-10-18T09:29:17;17.60;99.90
22212;DHT22;11275;52.488;13.462;2022-10-18T09:34:17;17.50;99.90
22212;DHT22;11275;52.488;13.462;2022-10-18T09:36:50;17.50;99.90
22212;DHT22;11275;52.488;13.462;2022-10-18T09:39:29;17.50;99.90
22212;DHT22;11275;52.488;13.462;2022-10-18T09:42:01;17.50;99.90
22212;DHT22;11275;52.488;13.462;2022-10-18T09:44:38;17.60;99.90
22212;DHT22;11275;52.488;13.462;2022-10-18T09:47:13;17.60;99.90
22212;DHT22;11275;52.488;13.462;2022-10-18T09:49:44;17.60;99.90
22212;DHT22;11275;52.488;13.462;2022-10-18T09:55:19;17.60;99.90
22212;DHT22;11275;52.488;13.462;2022-10-18T09:57:52;17.60;99.90
22212;DHT22;11275;52.488;13.462;2022-10-18T10:00:23;17.60;99.90
22212;DHT22;11275;52.488;13.462;2022-10-18T10:02:50;17.60;99.90
22212;DHT22;11275;52.488;13.462;2022-10-18T10:05:16;17.60;99.90
22212;DHT22;11275;52.488;13.462;2022-10-18T10:07:45;17.60;99.90
22212;DHT22;11275;52.488;13.462;2022-10-18T10:10:23;17.60;99.90
22212;DHT22;11275;52.488;13.462;2022-10-18T10:13:16;17.60;99.90
22212;DHT22;11275;52.488;13.462;2022-10-18T10:15:56;17.60;99.90
22212;DHT22;11275;52.488;13.462;2022-10-18T10:18:35;17.60;99.90
22212;DHT22;11275;52.488;13.462;2022-10-18T10:21:07;17.50;99.90
22212;DHT22;11275;52.488;13.462;2022-10-18T10:23:49;17.50;99.90
22212;DHT22;11275;52.488;13.462;2022-10-18T10:26:31;17.50;99.90
22212;DHT22;11275;52.488;13.462;2022-10-18T10:28:57;17.60;99.90
22212;DHT22;11275;52.488;13.462;2022-10-18T10:36:27;17.50;99.90
22212;DHT22;11275;52.488;13.462;2022-10-18T10:39:10;17.50;99.90
22212;DHT22;11275;52.488;13.462;2022-10-18T10:41:37;17.40;99.90
22212;DHT22;11275;52.488;13.462;2022-10-18T10:44:16;17.50;99.90
22212;DHT22;11275;52.488;13.462;2022-10-18T10:46:42;17.50;99.90
22212;DHT22;11275;52.488;13.462;2022-10-18T10:49:26;17.50;99.90
22212;DHT22;11275;52.488;13.462;2022-10-18T10:52:03;17.50;99.90
22212;DHT22;11275;52.488;13.462;2022-10-18T10:54:30;17.50;99.90
22212;DHT22;11275;52.488;13.462;2022-10-18T10:59:47;17.60;99.90
22212;DHT22;11275;52.488;13.462;2022-10-18T11:04:39;17.70;99.90
22212;DHT22;11275;52.488;13.462;2022-10-18T11:12:43;17.80;99.90
22212;DHT22;11275;52.488;13.462;2022-10-18T11:20:44;17.80;99.90
22212;DHT22;11275;52.488;13.462;2022-10-18T11:23:13;17.80;99.90
22212;DHT22;11275;52.488;13.462;2022-10-18T11:28:36;17.80;99.90
22212;DHT22;11275;52.488;13.462;2022-10-18T11:36:23;17.80;99.90
22212;DHT22;11275;52.488;13.462;2022-10-18T11:39:09;17.80;99.90
22212;DHT22;11275;52.488;13.462;2022-10-18T11:41:53;17.80;99.90
22212;DHT22;11275;52.488;13.462;2022-10-18T11:47:02;17.70;99.90
22212;DHT22;11275;52.488;13.462;2022-10-18T12:03:14;17.80;99.90
22212;DHT22;11275;52.488;13.462;2022-10-18T12:05:44;17.80;99.90
22212;DHT22;11275;52.488;13.462;2022-10-18T12:08:15;17.80;99.90
22212;DHT22;11275;52.488;13.462;2022-10-18T12:10:43;17.80;99.90
22212;DHT22;11275;52.488;13.462;2022-10-18T12:13:26;17.80;99.90
22212;DHT22;11275;52.488;13.462;2022-10-18T12:15:54;17.80;99.90
22212;DHT22;11275;52.488;13.462;2022-10-18T12:18:22;17.80;99.90
22212;DHT22;11275;52.488;13.462;2022-10-18T12:20:55;17.90;99.90
22212;DHT22;11275;52.488;13.462;2022-10-18T12:26:00;17.90;99.90
22212;DHT22;11275;52.488;13.462;2022-10-18T12:33:42;17.80;99.90
22212;DHT22;11275;52.488;13.462;2022-10-18T12:39:00;17.80;99.90
22212;DHT22;11275;52.488;13.462;2022-10-18T12:41:30;17.80;99.90
22212;DHT22;11275;52.488;13.462;2022-10-18T12:46:54;17.90;99.90
22212;DHT22;11275;52.488;13.462;2022-10-18T12:49:31;17.90;99.90
22212;DHT22;11275;52.488;13.462;2022-10-18T12:52:17;17.90;99.90
22212;DHT22;11275;52.488;13.462;2022-10-18T12:55:27;17.90;99.90
22212;DHT22;11275;52.488;13.462;2022-10-18T13:26:00;18.00;99.90
22212;DHT22;11275;52.488;13.462;2022-10-18T13:33:43;18.00;99.90
22212;DHT22;11275;52.488;13.462;2022-10-18T13:36:27;18.00;99.90
22212;DHT22;11275;52.488;13.462;2022-10-18T13:41:26;18.10;99.90
22212;DHT22;11275;52.488;13.462;2022-10-18T13:49:04;18.10;99.90
22212;DHT22;11275;52.488;13.462;2022-10-18T13:52:15;18.10;99.90
22212;DHT22;11275;52.488;13.462;2022-10-18T14:05:50;18.00;99.90
22212;DHT22;11275;52.488;13.462;2022-10-18T14:08:21;17.90;99.90
22212;DHT22;11275;52.488;13.462;2022-10-18T14:13:24;17.70;99.90
22212;DHT22;11275;52.488;13.462;2022-10-18T14:15:53;17.70;99.90
22212;DHT22;11275;52.488;13.462;2022-10-18T14:18:26;17.90;99.90
22212;DHT22;11275;52.488;13.462;2022-10-18T14:20:59;17.90;99.90
22212;DHT22;11275;52.488;13.462;2022-10-18T14:23:32;18.00;99.90
22212;DHT22;11275;52.488;13.462;2022-10-18T14:26:21;18.10;99.90
22212;DHT22;11275;52.488;13.462;2022-10-18T14:29:05;18.10;99.90
22212;DHT22;11275;52.488;13.462;2022-10-18T14:31:31;18.20;99.90
22212;DHT22;11275;52.488;13.462;2022-10-18T14:33:57;18.20;99.90
22212;DHT22;11275;52.488;13.462;2022-10-18T14:39:00;18.20;99.90
22212;DHT22;11275;52.488;13.462;2022-10-18T14:41:38;18.20;99.90
22212;DHT22;11275;52.488;13.462;2022-10-18T14:49:17;18.20;99.90
22212;DHT22;11275;52.488;13.462;2022-10-18T14:51:45;18.20;99.90
22212;DHT22;11275;52.488;13.462;2022-10-18T14:54:17;18.10;99.90
22212;DHT22;11275;52.488;13.462;2022-10-18T14:56:44;18.00;99.90
22212;DHT22;11275;52.488;13.462;2022-10-18T14:59:25;18.00;99.90
22212;DHT22;11275;52.488;13.462;2022-10-18T15:01:54;18.00;99.90
22212;DHT22;11275;52.488;13.462;2022-10-18T15:04:20;17.90;99.90
22212;DHT22;11275;52.488;13.462;2022-10-18T15:06:47;17.80;99.90
22212;DHT22;11275;52.488;13.462;2022-10-18T15:09:15;17.80;99.90
22212;DHT22;11275;52.488;13.462;2022-10-18T15:11:45;17.80;99.90
22212;DHT22;11275;52.488;13.462;2022-10-18T15:14:17;17.70;99.90
22212;DHT22;11275;52.488;13.462;2022-10-18T15:16:43;17.70;99.90
22212;DHT22;11275;52.488;13.462;2022-10-18T15:21:48;17.60;99.90
22212;DHT22;11275;52.488;13.462;2022-10-18T15:26:45;17.60;99.90
22212;DHT22;11275;52.488;13.462;2022-10-18T15:29:16;17.60;99.90
22212;DHT22;11275;52.488;13.462;2022-10-18T15:31:44;17.50;99.90
22212;DHT22;11275;52.488;13.462;2022-10-18T15:34:23;17.40;99.90
22212;DHT22;11275;52.488;13.462;2022-10-18T15:36:51;17.40;99.90
22212;DHT22;11275;52.488;13.462;2022-10-18T15:39:20;17.40;99.90
22212;DHT22;11275;52.488;13.462;2022-10-18T15:41:50;17.30;99.90
22212;DHT22;11275;52.488;13.462;2022-10-18T15:54:53;17.20;99.90
22212;DHT22;11275;52.488;13.462;2022-10-18T15:57:19;17.10;99.90
22212;DHT22;11275;52.488;13.462;2022-10-18T15:59:59;17.10;99.90
22212;DHT22;11275;52.488;13.462;2022-10-18T16:02:27;17.00;99.90
22212;DHT22;11275;52.488;13.462;2022-10-18T16:04:52;17.00;99.90
22212;DHT22;11275;52.488;13.462;2022-10-18T16:07:18;17.00;99.90
22212;DHT22;11275;52.488;13.462;2022-10-18T16:09:44;17.00;99.90
22212;DHT22;11275;52.488;13.462;2022-10-18T16:12:09;16.90;99.90
22212;DHT22;11275;52.488;13.462;2022-10-18T16:14:35;16.80;99.90
22212;DHT22;11275;52.488;13.462;2022-10-18T16:17:03;16.80;99.90
22212;DHT22;11275;52.488;13.462;2022-10-18T16:19:30;16.70;99.90
22212;DHT22;11275;52.488;13.462;2022-10-18T16:21:56;16.70;99.90
22212;DHT22;11275;52.488;13.462;2022-10-18T16:24:22;16.70;99.90
22212;DHT22;11275;52.488;13.462;2022-10-18T16:26:48;16.70;99.90
22212;DHT22;11275;52.488;13.462;2022-10-18T16:29:16;16.70;99.90
22212;DHT22;11275;52.488;13.462;2022-10-18T16:31:43;16.60;99.90
22212;DHT22;11275;52.488;13.462;2022-10-18T16:34:11;16.60;99.90
22212;DHT22;11275;52.488;13.462;2022-10-18T16:36:39;16.60;99.90
22212;DHT22;11275;52.488;13.462;2022-10-18T16:39:06;16.60;99.90
22212;DHT22;11275;52.488;13.462;2022-10-18T16:41:36;16.50;99.90
22212;DHT22;11275;52.488;13.462;2022-10-18T16:44:01;16.50;99.90
22212;DHT22;11275;52.488;13.462;2022-10-18T16:46:29;16.40;99.90
22212;DHT22;11275;52.488;13.462;2022-10-18T16:48:56;16.40;99.90
22212;DHT22;11275;52.488;13.462;2022-10-18T16:51:22;16.40;99.90
22212;DHT22;11275;52.488;13.462;2022-10-18T16:53:48;16.30;99.90
22212;DHT22;11275;52.488;13.462;2022-10-18T16:56:19;16.30;99.90
22212;DHT22;11275;52.488;13.462;2022-10-18T16:58:46;16.30;99.90
22212;DHT22;11275;52.488;13.462;2022-10-18T17:01:14;16.30;99.90
22212;DHT22;11275;52.488;13.462;2022-10-18T17:03:40;16.30;99.90
22212;DHT22;11275;52.488;13.462;2022-10-18T17:06:30;16.30;99.90
22212;DHT22;11275;52.488;13.462;2022-10-18T17:08:56;16.30;99.90
22212;DHT22;11275;52.488;13.462;2022-10-18T17:11:23;16.30;99.90
22212;DHT22;11275;52.488;13.462;2022-10-18T17:13:49;16.20;99.90
22212;DHT22;11275;52.488;13.462;2022-10-18T17:16:28;16.10;99.90
22212;DHT22;11275;52.488;13.462;2022-10-18T17:18:55;16.10;99.90
22212;DHT22;11275;52.488;13.462;2022-10-18T17:21:21;16.00;99.90
22212;DHT22;11275;52.488;13.462;2022-10-18T17:23:47;16.00;99.90
22212;DHT22;11275;52.488;13.462;2022-10-18T17:26:16;15.90;99.90
22212;DHT22;11275;52.488;13.462;2022-10-18T17:28:42;15.90;99.90
22212;DHT22;11275;52.488;13.462;2022-10-18T17:31:07;15.90;99.90
22212;DHT22;11275;52.488;13.462;2022-10-18T17:33:33;15.90;99.90
22212;DHT22;11275;52.488;13.462;2022-10-18T17:35:58;15.90;99.90
22212;DHT22;11275;52.488;13.462;2022-10-18T17:38:24;15.80;99.90
22212;DHT22;11275;52.488;13.462;2022-10-18T17:40:50;15.80;99.90
22212;DHT22;11275;52.488;13.462;2022-10-18T17:43:17;15.80;99.90
22212;DHT22;11275;52.488;13.462;2022-10-18T17:45:47;15.80;99.90
22212;DHT22;11275;52.488;13.462;2022-10-18T17:48:12;15.70;99.90
22212;DHT22;11275;52.488;13.462;2022-10-18T17:50:41;15.70;99.90
22212;DHT22;11275;52.488;13.462;2022-10-18T17:53:06;15.70;99.90
22212;DHT22;11275;52.488;13.462;2022-10-18T17:55:33;15.70;99.90
22212;DHT22;11275;52.488;13.462;2022-10-18T17:57:59;15.60;99.90
22212;DHT22;11275;52.488;13.462;2022-10-18T18:00:25;15.50;99.90
22212;DHT22;11275;52.488;13.462;2022-10-18T18:02:51;15.50;99.90
22212;DHT22;11275;52.488;13.462;2022-10-18T18:05:16;15.40;99.90
22212;DHT22;11275;52.488;13.462;2022-10-18T18:07:42;15.30;99.90
22212;DHT22;11275;52.488;13.462;2022-10-18T18:10:08;15.20;99.90
22212;DHT22;11275;52.488;13.462;2022-10-18T18:12:34;15.20;99.90
22212;DHT22;11275;52.488;13.462;2022-10-18T18:14:59;15.20;99.90
22212;DHT22;11275;52.488;13.462;2022-10-18T18:17:25;15.20;99.90
22212;DHT22;11275;52.488;13.462;2022-10-18T18:23:14;15.30;99.90
22212;DHT22;11275;52.488;13.462;2022-10-18T18:25:40;15.30;99.90
22212;DHT22;11275;52.488;13.462;2022-10-18T18:28:14;15.30;99.90
22212;DHT22;11275;52.488;13.462;2022-10-18T18:34:26;15.30;99.90
22212;DHT22;11275;52.488;13.462;2022-10-18T18:37:39;15.30;99.90
22212;DHT22;11275;52.488;13.462;2022-10-18T18:40:14;15.30;99.90